sensor_id;sensor_type;location;lat;lon;timestamp;temperature;humidity
11083;DHT22;5595;50.186;8.468;2023-01-13T00:00:48;8.60;99.90
11083;DHT22;5595;50.186;8.468;2023-01-13T00:03:15;8.60;99.90
11083;DHT22;5595;50.186;8.468;2023-01-13T00:05:42;8.60;99.90
11083;DHT22;5595;50.186;8.468;2023-01-13T00:08:10;8.60;99.90
11083;DHT22;5595;50.186;8.468;2023-01-13T00:10:37;8.60;99.90
11083;DHT22;5595;50.186;8.468;2023-01-13T00:13:04;8.60;99.90
11083;DHT22;5595;50.186;8.468;2023-01-13T00:15:31;8.60;99.90
11083;DHT22;5595;50.186;8.468;2023-01-13T00:17:58;8.60;99.90
11083;DHT22;5595;50.186;8.468;2023-01-13T00:20:25;8.60;99.90
11083;DHT22;5595;50.186;8.468;2023-01-13T00:22:51;8.60;99.90
11083;DHT22;5595;50.186;8.468;2023-01-13T00:25:21;8.60;99.90
11083;DHT22;5595;50.186;8.468;2023-01-13T00:27:48;8.60;99.90
11083;DHT22;5595;50.186;8.468;2023-01-13T00:30:15;8.60;99.90
11083;DHT22;5595;50.186;8.468;2023-01-13T00:32:42;8.60;99.90
11083;DHT22;5595;50.186;8.468;2023-01-13T00:35:09;8.60;99.90
11083;DHT22;5595;50.186;8.468;2023-01-13T00:37:36;8.60;99.90
11083;DHT22;5595;50.186;8.468;2023-01-13T00:40:04;8.60;99.90
11083;DHT22;5595;50.186;8.468;2023-01-13T00:42:33;8.60;99.90
11083;DHT22;5595;50.186;8.468;2023-01-13T00:45:17;8.60;99.90
11083;DHT22;5595;50.186;8.468;2023-01-13T00:47:44;8.50;99.90
11083;DHT22;5595;50.186;8.468;2023-01-13T00:50:11;8.50;99.90
11083;DHT22;5595;50.186;8.468;2023-01-13T00:52:38;8.60;99.90
11083;DHT22;5595;50.186;8.468;2023-01-13T00:55:05;8.60;99.90
11083;DHT22;5595;50.186;8.468;2023-01-13T00:57:34;8.60;99.90
11083;DHT22;5595;50.186;8.468;2023-01-13T01:00:01;8.60;99.90
11083;DHT22;5595;50.186;8.468;2023-01-13T01:02:29;8.70;99.90
11083;DHT22;5595;50.186;8.468;2023-01-13T01:04:56;8.70;99.90
11083;DHT22;5595;50.186;8.468;2023-01-13T01:07:24;8.70;99.90
11083;DHT22;5595;50.186;8.468;2023-01-13T01:09:51;8.70;99.90
11083;DHT22;5595;50.186;8.468;2023-01-13T01:12:18;8.70;99.90
11083;DHT22;5595;50.186;8.468;2023-01-13T01:14:46;8.70;99.90
11083;DHT22;5595;50.186;8.468;2023-01-13T01:17:13;8.60;99.90
11083;DHT22;5595;50.186;8.468;2023-01-13T01:19:39;8.60;99.90
11083;DHT22;5595;50.186;8.468;2023-01-13T01:22:06;8.60;99.90
11083;DHT22;5595;50.186;8.468;2023-01-13T01:24:33;8.60;99.90
11083;DHT22;5595;50.186;8.468;2023-01-13T01:27:00;8.60;99.90
11083;DHT22;5595;50.186;8.468;2023-01-13T01:29:27;8.60;99.90
11083;DHT22;5595;50.186;8.468;2023-01-13T01:31:56;8.60;99.90
11083;DHT22;5595;50.186;8.468;2023-01-13T01:34:23;8.60;99.90
11083;DHT22;5595;50.186;8.468;2023-01-13T01:36:50;8.60;99.90
11083;DHT22;5595;50.186;8.468;2023-01-13T01:39:16;8.60;99.90
11083;DHT22;5595;50.186;8.468;2023-01-13T01:41:43;8.60;99.90
11083;DHT22;5595;50.186;8.468;2023-01-13T01:44:54;8.60;99.90
11083;DHT22;5595;50.186;8.468;2023-01-13T01:47:22;9.80;99.90
11083;DHT22;5595;50.186;8.468;2023-01-13T01:49:50;8.60;99.90
11083;DHT22;5595;50.186;8.468;2023-01-13T01:52:20;8.60;99.90
11083;DHT22;5595;50.186;8.468;2023-01-13T01:54:53;8.60;99.90
11083;DHT22;5595;50.186;8.468;2023-01-13T01:57:24;8.60;99.90
11083;DHT22;5595;50.186;8.468;2023-01-13T01:59:52;8.60;99.90
11083;DHT22;5595;50.186;8.468;2023-01-13T02:02:19;8.60;99.90
11083;DHT22;5595;50.186;8.468;2023-01-13T02:04:50;8.60;99.90
11083;DHT22;5595;50.186;8.468;2023-01-13T02:07:20;8.50;99.90
11083;DHT22;5595;50.186;8.468;2023-01-13T02:09:48;8.50;99.90
11083;DHT22;5595;50.186;8.468;2023-01-13T02:12:15;8.60;99.90
11083;DHT22;5595;50.186;8.468;2023-01-13T02:15:01;8.60;99.90
11083;DHT22;5595;50.186;8.468;2023-01-13T02:17:50;8.60;99.90
11083;DHT22;5595;50.186;8.468;2023-01-13T02:20:51;8.60;99.90
11083;DHT22;5595;50.186;8.468;2023-01-13T02:23:43;8.60;99.90
11083;DHT22;5595;50.186;8.468;2023-01-13T02:26:58;8.60;99.90
11083;DHT22;5595;50.186;8.468;2023-01-13T02:29:56;8.60;99.90
11083;DHT22;5595;50.186;8.468;2023-01-13T02:32:50;8.60;99.90
11083;DHT22;5595;50.186;8.468;2023-01-13T02:35:24;8.60;99.90
11083;DHT22;5595;50.186;8.468;2023-01-13T02:37:53;8.60;99.90
11083;DHT22;5595;50.186;8.468;2023-01-13T02:40:24;8.60;99.90
11083;DHT22;5595;50.186;8.468;2023-01-13T02:42:56;8.60;99.90
11083;DHT22;5595;50.186;8.468;2023-01-13T02:45:49;8.60;99.90
11083;DHT22;5595;50.186;8.468;2023-01-13T02:48:18;8.60;99.90
11083;DHT22;5595;50.186;8.468;2023-01-13T02:50:48;8.60;99.90
11083;DHT22;5595;50.186;8.468;2023-01-13T02:53:19;8.60;99.90
11083;DHT22;5595;50.186;8.468;2023-01-13T02:55:49;8.60;99.90
11083;DHT22;5595;50.186;8.468;2023-01-13T02:58:21;8.60;99.90
11083;DHT22;5595;50.186;8.468;2023-01-13T03:00:50;8.60;99.90
11083;DHT22;5595;50.186;8.468;2023-01-13T03:03:17;8.60;99.90
11083;DHT22;5595;50.186;8.468;2023-01-13T03:05:45;8.60;99.90
11083;DHT22;5595;50.186;8.468;2023-01-13T03:08:25;8.60;99.90
11083;DHT22;5595;50.186;8.468;2023-01-13T03:11:01;8.50;99.90
11083;DHT22;5595;50.186;8.468;2023-01-13T03:13:51;8.60;99.90
11083;DHT22;5595;50.186;8.468;2023-01-13T03:16:41;8.60;99.90
11083;DHT22;5595;50.186;8.468;2023-01-13T03:19:16;8.60;99.90
11083;DHT22;5595;50.186;8.468;2023-01-13T03:21:52;8.60;99.90
11083;DHT22;5595;50.186;8.468;2023-01-13T03:24:26;8.60;99.90
11083;DHT22;5595;50.186;8.468;2023-01-13T03:26:59;8.50;99.90
11083;DHT22;5595;50.186;8.468;2023-01-13T03:29:31;8.50;99.90
11083;DHT22;5595;50.186;8.468;2023-01-13T03:32:05;8.50;99.90
11083;DHT22;5595;50.186;8.468;2023-01-13T03:34:38;8.50;99.90
11083;DHT22;5595;50.186;8.468;2023-01-13T03:37:09;8.50;99.90
11083;DHT22;5595;50.186;8.468;2023-01-13T03:39:40;8.50;99.90
11083;DHT22;5595;50.186;8.468;2023-01-13T03:42:13;8.50;99.90
11083;DHT22;5595;50.186;8.468;2023-01-13T03:44:45;8.50;99.90
11083;DHT22;5595;50.186;8.468;2023-01-13T03:47:16;8.50;99.90
11083;DHT22;5595;50.186;8.468;2023-01-13T03:49:52;8.60;99.90
11083;DHT22;5595;50.186;8.468;2023-01-13T03:52:23;8.50;99.90
11083;DHT22;5595;50.186;8.468;2023-01-13T03:54:53;8.60;99.90
11083;DHT22;5595;50.186;8.468;2023-01-13T03:57:25;8.60;99.90
11083;DHT22;5595;50.186;8.468;2023-01-13T03:59:55;8.60;99.90
11083;DHT22;5595;50.186;8.468;2023-01-13T04:02:33;8.60;99.90
11083;DHT22;5595;50.186;8.468;2023-01-13T04:05:03;8.60;99.90
11083;DHT22;5595;50.186;8.468;2023-01-13T04:07:41;8.60;99.90
11083;DHT22;5595;50.186;8.468;2023-01-13T04:10:10;8.60;99.90
11083;DHT22;5595;50.186;8.468;2023-01-13T04:12:41;8.60;99.90
11083;DHT22;5595;50.186;8.468;2023-01-13T04:15:33;8.70;99.90
11083;DHT22;5595;50.186;8.468;2023-01-13T04:18:13;8.60;99.90
11083;DHT22;5595;50.186;8.468;2023-01-13T04:20:42;8.70;99.90
11083;DHT22;5595;50.186;8.468;2023-01-13T04:23:09;8.70;99.90
11083;DHT22;5595;50.186;8.468;2023-01-13T04:25:38;8.70;99.90
11083;DHT22;5595;50.186;8.468;2023-01-13T04:28:05;8.70;99.90
11083;DHT22;5595;50.186;8.468;2023-01-13T04:30:32;8.70;99.90
11083;DHT22;5595;50.186;8.468;2023-01-13T04:32:59;8.70;99.90
11083;DHT22;5595;50.186;8.468;2023-01-13T04:35:27;8.70;99.90
11083;DHT22;5595;50.186;8.468;2023-01-13T04:37:54;8.70;99.90
11083;DHT22;5595;50.186;8.468;2023-01-13T04:40:21;8.70;99.90
11083;DHT22;5595;50.186;8.468;2023-01-13T04:42:48;8.70;99.90
11083;DHT22;5595;50.186;8.468;2023-01-13T04:45:15;8.70;99.90
11083;DHT22;5595;50.186;8.468;2023-01-13T04:47:42;8.70;99.90
11083;DHT22;5595;50.186;8.468;2023-01-13T04:50:10;8.70;99.90
11083;DHT22;5595;50.186;8.468;2023-01-13T04:52:38;8.70;99.90
11083;DHT22;5595;50.186;8.468;2023-01-13T04:55:06;8.70;99.90
11083;DHT22;5595;50.186;8.468;2023-01-13T04:57:33;8.60;99.90
11083;DHT22;5595;50.186;8.468;2023-01-13T05:00:03;8.60;99.90
11083;DHT22;5595;50.186;8.468;2023-01-13T05:02:30;8.60;99.90
11083;DHT22;5595;50.186;8.468;2023-01-13T05:04:58;8.70;99.90
11083;DHT22;5595;50.186;8.468;2023-01-13T05:07:25;8.60;99.90
11083;DHT22;5595;50.186;8.468;2023-01-13T05:09:53;8.60;99.90
11083;DHT22;5595;50.186;8.468;2023-01-13T05:12:20;8.40;99.90
11083;DHT22;5595;50.186;8.468;2023-01-13T05:15:05;8.30;99.90
11083;DHT22;5595;50.186;8.468;2023-01-13T05:17:49;8.10;99.90
11083;DHT22;5595;50.186;8.468;2023-01-13T05:20:16;8.00;99.90
11083;DHT22;5595;50.186;8.468;2023-01-13T05:22:43;7.90;99.90
11083;DHT22;5595;50.186;8.468;2023-01-13T05:25:29;7.90;99.90
11083;DHT22;5595;50.186;8.468;2023-01-13T05:27:58;7.80;99.90
11083;DHT22;5595;50.186;8.468;2023-01-13T05:30:26;7.80;99.90
11083;DHT22;5595;50.186;8.468;2023-01-13T05:32:53;7.70;99.90
11083;DHT22;5595;50.186;8.468;2023-01-13T05:35:20;7.70;99.90
11083;DHT22;5595;50.186;8.468;2023-01-13T05:37:47;7.70;99.90
11083;DHT22;5595;50.186;8.468;2023-01-13T05:40:16;7.70;99.90
11083;DHT22;5595;50.186;8.468;2023-01-13T05:43:04;7.70;99.90
11083;DHT22;5595;50.186;8.468;2023-01-13T05:45:48;7.70;99.90
11083;DHT22;5595;50.186;8.468;2023-01-13T05:48:16;7.70;99.90
11083;DHT22;5595;50.186;8.468;2023-01-13T05:50:44;7.70;99.90
11083;DHT22;5595;50.186;8.468;2023-01-13T05:53:11;7.60;99.90
11083;DHT22;5595;50.186;8.468;2023-01-13T05:55:39;7.60;99.90
11083;DHT22;5595;50.186;8.468;2023-01-13T05:58:11;7.60;99.90
11083;DHT22;5595;50.186;8.468;2023-01-13T06:00:38;7.60;99.90
11083;DHT22;5595;50.186;8.468;2023-01-13T06:03:05;7.60;99.90
11083;DHT22;5595;50.186;8.468;2023-01-13T06:05:33;7.60;99.90
11083;DHT22;5595;50.186;8.468;2023-01-13T06:08:01;7.60;99.90
11083;DHT22;5595;50.186;8.468;2023-01-13T06:10:29;7.60;99.90
11083;DHT22;5595;50.186;8.468;2023-01-13T06:12:56;7.60;99.90
11083;DHT22;5595;50.186;8.468;2023-01-13T06:15:24;7.60;99.90
11083;DHT22;5595;50.186;8.468;2023-01-13T06:17:51;7.60;99.90
11083;DHT22;5595;50.186;8.468;2023-01-13T06:20:18;7.60;99.90
11083;DHT22;5595;50.186;8.468;2023-01-13T06:22:47;7.60;99.90
11083;DHT22;5595;50.186;8.468;2023-01-13T06:25:21;7.60;99.90
11083;DHT22;5595;50.186;8.468;2023-01-13T06:27:50;7.60;99.90
11083;DHT22;5595;50.186;8.468;2023-01-13T06:30:17;7.60;99.90
11083;DHT22;5595;50.186;8.468;2023-01-13T06:32:48;7.60;99.90
11083;DHT22;5595;50.186;8.468;2023-01-13T06:35:20;7.60;99.90
11083;DHT22;5595;50.186;8.468;2023-01-13T06:37:54;7.60;99.90
11083;DHT22;5595;50.186;8.468;2023-01-13T06:40:22;7.60;99.90
11083;DHT22;5595;50.186;8.468;2023-01-13T06:42:51;7.60;99.90
11083;DHT22;5595;50.186;8.468;2023-01-13T06:45:36;7.50;99.90
11083;DHT22;5595;50.186;8.468;2023-01-13T06:48:05;7.50;99.90
11083;DHT22;5595;50.186;8.468;2023-01-13T06:50:32;7.50;99.90
11083;DHT22;5595;50.186;8.468;2023-01-13T06:52:59;7.50;99.90
11083;DHT22;5595;50.186;8.468;2023-01-13T06:55:26;7.50;99.90
11083;DHT22;5595;50.186;8.468;2023-01-13T06:57:54;7.50;99.90
11083;DHT22;5595;50.186;8.468;2023-01-13T07:00:23;7.50;99.90
11083;DHT22;5595;50.186;8.468;2023-01-13T07:02:50;7.50;99.90
11083;DHT22;5595;50.186;8.468;2023-01-13T07:05:19;7.50;99.90
11083;DHT22;5595;50.186;8.468;2023-01-13T07:07:46;7.50;99.90
11083;DHT22;5595;50.186;8.468;2023-01-13T07:10:14;7.50;99.90
11083;DHT22;5595;50.186;8.468;2023-01-13T07:12:47;7.60;99.90
11083;DHT22;5595;50.186;8.468;2023-01-13T07:15:32;7.50;99.90
11083;DHT22;5595;50.186;8.468;2023-01-13T07:17:59;7.60;99.90
11083;DHT22;5595;50.186;8.468;2023-01-13T07:20:27;7.50;99.90
11083;DHT22;5595;50.186;8.468;2023-01-13T07:22:55;7.40;99.90
11083;DHT22;5595;50.186;8.468;2023-01-13T07:25:22;7.30;99.90
11083;DHT22;5595;50.186;8.468;2023-01-13T07:27:49;7.20;99.90
11083;DHT22;5595;50.186;8.468;2023-01-13T07:30:16;7.10;99.90
11083;DHT22;5595;50.186;8.468;2023-01-13T07:32:43;7.00;99.90
11083;DHT22;5595;50.186;8.468;2023-01-13T07:35:10;7.00;99.90
11083;DHT22;5595;50.186;8.468;2023-01-13T07:37:38;6.90;99.90
11083;DHT22;5595;50.186;8.468;2023-01-13T07:40:07;6.90;99.90
11083;DHT22;5595;50.186;8.468;2023-01-13T07:42:37;6.80;99.90
11083;DHT22;5595;50.186;8.468;2023-01-13T07:45:22;6.80;99.90
11083;DHT22;5595;50.186;8.468;2023-01-13T07:47:50;6.90;99.90
11083;DHT22;5595;50.186;8.468;2023-01-13T07:50:19;6.90;99.90
11083;DHT22;5595;50.186;8.468;2023-01-13T07:52:48;6.90;99.90
11083;DHT22;5595;50.186;8.468;2023-01-13T07:55:15;7.00;99.90
11083;DHT22;5595;50.186;8.468;2023-01-13T07:57:42;7.10;99.90
11083;DHT22;5595;50.186;8.468;2023-01-13T08:00:10;7.20;99.90
11083;DHT22;5595;50.186;8.468;2023-01-13T08:02:37;7.20;99.90
11083;DHT22;5595;50.186;8.468;2023-01-13T08:05:05;7.30;99.90
11083;DHT22;5595;50.186;8.468;2023-01-13T08:07:32;7.30;99.90
11083;DHT22;5595;50.186;8.468;2023-01-13T08:10:00;7.30;99.90
11083;DHT22;5595;50.186;8.468;2023-01-13T08:12:27;7.30;99.90
11083;DHT22;5595;50.186;8.468;2023-01-13T08:15:11;7.40;99.90
11083;DHT22;5595;50.186;8.468;2023-01-13T08:17:38;7.40;99.90
11083;DHT22;5595;50.186;8.468;2023-01-13T08:20:06;7.50;99.90
11083;DHT22;5595;50.186;8.468;2023-01-13T08:22:33;7.50;99.90
11083;DHT22;5595;50.186;8.468;2023-01-13T08:25:01;7.50;99.90
11083;DHT22;5595;50.186;8.468;2023-01-13T08:27:28;7.50;99.90
11083;DHT22;5595;50.186;8.468;2023-01-13T08:29:55;7.60;99.90
11083;DHT22;5595;50.186;8.468;2023-01-13T08:32:22;7.60;99.90
11083;DHT22;5595;50.186;8.468;2023-01-13T08:34:49;7.60;99.90
11083;DHT22;5595;50.186;8.468;2023-01-13T08:37:16;7.70;99.90
11083;DHT22;5595;50.186;8.468;2023-01-13T08:39:42;7.70;99.90
11083;DHT22;5595;50.186;8.468;2023-01-13T08:42:10;7.70;99.90
11083;DHT22;5595;50.186;8.468;2023-01-13T08:44:37;7.70;99.90
11083;DHT22;5595;50.186;8.468;2023-01-13T08:47:04;7.70;99.90
11083;DHT22;5595;50.186;8.468;2023-01-13T08:49:31;7.80;99.90
11083;DHT22;5595;50.186;8.468;2023-01-13T08:51:58;7.80;99.90
11083;DHT22;5595;50.186;8.468;2023-01-13T08:54:25;7.80;99.90
11083;DHT22;5595;50.186;8.468;2023-01-13T08:56:52;7.90;99.90
11083;DHT22;5595;50.186;8.468;2023-01-13T08:59:20;7.90;99.90
11083;DHT22;5595;50.186;8.468;2023-01-13T09:01:47;7.80;99.90
11083;DHT22;5595;50.186;8.468;2023-01-13T09:04:17;7.80;99.90
11083;DHT22;5595;50.186;8.468;2023-01-13T09:06:44;7.90;99.90
11083;DHT22;5595;50.186;8.468;2023-01-13T09:09:11;7.90;99.90
11083;DHT22;5595;50.186;8.468;2023-01-13T09:11:41;8.00;99.90
11083;DHT22;5595;50.186;8.468;2023-01-13T09:14:28;8.00;99.90
11083;DHT22;5595;50.186;8.468;2023-01-13T09:16:55;8.00;99.90
11083;DHT22;5595;50.186;8.468;2023-01-13T09:19:22;8.10;99.90
11083;DHT22;5595;50.186;8.468;2023-01-13T09:21:49;8.20;99.90
11083;DHT22;5595;50.186;8.468;2023-01-13T09:24:17;8.30;99.90
11083;DHT22;5595;50.186;8.468;2023-01-13T09:26:44;8.40;99.90
11083;DHT22;5595;50.186;8.468;2023-01-13T09:29:11;8.40;99.90
11083;DHT22;5595;50.186;8.468;2023-01-13T09:31:39;8.40;99.90
11083;DHT22;5595;50.186;8.468;2023-01-13T09:34:06;8.40;99.90
11083;DHT22;5595;50.186;8.468;2023-01-13T09:36:51;8.40;99.90
11083;DHT22;5595;50.186;8.468;2023-01-13T09:39:18;8.40;99.90
11083;DHT22;5595;50.186;8.468;2023-01-13T09:41:47;8.50;99.90
11083;DHT22;5595;50.186;8.468;2023-01-13T09:44:41;8.70;99.90
11083;DHT22;5595;50.186;8.468;2023-01-13T09:47:18;8.70;99.90
11083;DHT22;5595;50.186;8.468;2023-01-13T09:49:45;8.70;99.90
11083;DHT22;5595;50.186;8.468;2023-01-13T09:52:16;8.80;99.90
11083;DHT22;5595;50.186;8.468;2023-01-13T09:54:47;8.80;99.90
11083;DHT22;5595;50.186;8.468;2023-01-13T09:57:16;8.80;99.90
11083;DHT22;5595;50.186;8.468;2023-01-13T09:59:44;8.70;99.90
11083;DHT22;5595;50.186;8.468;2023-01-13T10:02:28;8.70;99.90
11083;DHT22;5595;50.186;8.468;2023-01-13T10:05:12;8.70;99.90
11083;DHT22;5595;50.186;8.468;2023-01-13T10:07:45;8.60;99.90
11083;DHT22;5595;50.186;8.468;2023-01-13T10:10:27;8.60;99.90
11083;DHT22;5595;50.186;8.468;2023-01-13T10:12:55;8.50;99.90
11083;DHT22;5595;50.186;8.468;2023-01-13T10:15:43;8.50;99.90
11083;DHT22;5595;50.186;8.468;2023-01-13T10:18:16;8.40;99.90
11083;DHT22;5595;50.186;8.468;2023-01-13T10:20:53;8.40;99.90
11083;DHT22;5595;50.186;8.468;2023-01-13T10:23:36;8.40;99.90
11083;DHT22;5595;50.186;8.468;2023-01-13T10:26:15;8.50;99.90
11083;DHT22;5595;50.186;8.468;2023-01-13T10:28:50;8.50;99.90
11083;DHT22;5595;50.186;8.468;2023-01-13T10:31:19;8.70;99.90
11083;DHT22;5595;50.186;8.468;2023-01-13T10:33:47;9.00;99.90
11083;DHT22;5595;50.186;8.468;2023-01-13T10:36:16;9.20;99.90
11083;DHT22;5595;50.186;8.468;2023-01-13T10:38:47;9.40;99.90
11083;DHT22;5595;50.186;8.468;2023-01-13T10:41:23;9.30;99.90
11083;DHT22;5595;50.186;8.468;2023-01-13T10:43:59;9.20;99.90
11083;DHT22;5595;50.186;8.468;2023-01-13T10:46:27;9.20;99.90
11083;DHT22;5595;50.186;8.468;2023-01-13T10:48:57;9.00;99.90
11083;DHT22;5595;50.186;8.468;2023-01-13T10:51:27;8.90;99.90
11083;DHT22;5595;50.186;8.468;2023-01-13T10:53:59;8.80;99.90
11083;DHT22;5595;50.186;8.468;2023-01-13T10:56:29;8.80;99.90
11083;DHT22;5595;50.186;8.468;2023-01-13T10:59:15;8.60;99.90
11083;DHT22;5595;50.186;8.468;2023-01-13T11:01:55;8.50;99.90
11083;DHT22;5595;50.186;8.468;2023-01-13T11:04:30;8.40;99.90
11083;DHT22;5595;50.186;8.468;2023-01-13T11:06:58;8.40;99.90
11083;DHT22;5595;50.186;8.468;2023-01-13T11:09:26;8.30;99.90
11083;DHT22;5595;50.186;8.468;2023-01-13T11:11:55;8.30;99.90
11083;DHT22;5595;50.186;8.468;2023-01-13T11:14:26;8.20;99.90
11083;DHT22;5595;50.186;8.468;2023-01-13T11:17:11;8.00;99.90
11083;DHT22;5595;50.186;8.468;2023-01-13T11:19:45;7.80;99.90
11083;DHT22;5595;50.186;8.468;2023-01-13T11:22:16;7.70;99.90
11083;DHT22;5595;50.186;8.468;2023-01-13T11:24:49;7.60;99.90
11083;DHT22;5595;50.186;8.468;2023-01-13T11:27:22;7.70;99.90
11083;DHT22;5595;50.186;8.468;2023-01-13T11:29:58;7.80;99.90
11083;DHT22;5595;50.186;8.468;2023-01-13T11:32:31;7.80;99.90
11083;DHT22;5595;50.186;8.468;2023-01-13T11:35:08;7.90;99.90
11083;DHT22;5595;50.186;8.468;2023-01-13T11:37:44;8.00;99.90
11083;DHT22;5595;50.186;8.468;2023-01-13T11:40:17;8.10;99.90
11083;DHT22;5595;50.186;8.468;2023-01-13T11:42:50;8.10;99.90
11083;DHT22;5595;50.186;8.468;2023-01-13T11:45:23;8.20;99.90
11083;DHT22;5595;50.186;8.468;2023-01-13T11:47:57;8.30;99.90
11083;DHT22;5595;50.186;8.468;2023-01-13T11:50:31;8.50;99.90
11083;DHT22;5595;50.186;8.468;2023-01-13T11:53:09;8.80;99.90
11083;DHT22;5595;50.186;8.468;2023-01-13T11:55:46;9.10;99.90
11083;DHT22;5595;50.186;8.468;2023-01-13T11:58:31;9.50;99.90
11083;DHT22;5595;50.186;8.468;2023-01-13T12:01:40;9.60;99.90
11083;DHT22;5595;50.186;8.468;2023-01-13T12:04:22;9.80;99.90
11083;DHT22;5595;50.186;8.468;2023-01-13T12:07:00;9.80;99.90
11083;DHT22;5595;50.186;8.468;2023-01-13T12:09:44;9.80;99.90
11083;DHT22;5595;50.186;8.468;2023-01-13T12:12:20;9.80;99.90
11083;DHT22;5595;50.186;8.468;2023-01-13T12:15:01;9.90;99.90
11083;DHT22;5595;50.186;8.468;2023-01-13T12:17:36;9.80;99.90
11083;DHT22;5595;50.186;8.468;2023-01-13T12:20:21;9.70;99.90
11083;DHT22;5595;50.186;8.468;2023-01-13T12:22:54;9.80;99.90
11083;DHT22;5595;50.186;8.468;2023-01-13T12:25:30;9.80;99.90
11083;DHT22;5595;50.186;8.468;2023-01-13T12:28:01;9.80;99.90
11083;DHT22;5595;50.186;8.468;2023-01-13T12:30:35;9.70;99.90
11083;DHT22;5595;50.186;8.468;2023-01-13T12:33:12;9.50;99.90
11083;DHT22;5595;50.186;8.468;2023-01-13T12:35:48;9.40;99.90
11083;DHT22;5595;50.186;8.468;2023-01-13T12:38:24;9.30;99.90
11083;DHT22;5595;50.186;8.468;2023-01-13T12:40:58;9.20;99.90
11083;DHT22;5595;50.186;8.468;2023-01-13T12:43:28;9.20;99.90
11083;DHT22;5595;50.186;8.468;2023-01-13T12:46:43;9.30;99.90
11083;DHT22;5595;50.186;8.468;2023-01-13T12:49:25;9.50;99.90
11083;DHT22;5595;50.186;8.468;2023-01-13T12:52:13;9.70;99.90
11083;DHT22;5595;50.186;8.468;2023-01-13T12:58:12;9.60;99.90
11083;DHT22;5595;50.186;8.468;2023-01-13T13:00:57;9.50;99.90
11083;DHT22;5595;50.186;8.468;2023-01-13T13:03:31;9.40;99.90
11083;DHT22;5595;50.186;8.468;2023-01-13T13:06:11;9.30;99.90
11083;DHT22;5595;50.186;8.468;2023-01-13T13:08:59;9.20;99.90
11083;DHT22;5595;50.186;8.468;2023-01-13T13:11:39;9.20;99.90
11083;DHT22;5595;50.186;8.468;2023-01-13T13:15:00;9.10;99.90
11083;DHT22;5595;50.186;8.468;2023-01-13T13:17:42;9.00;99.90
11083;DHT22;5595;50.186;8.468;2023-01-13T13:23:35;8.60;99.90
11083;DHT22;5595;50.186;8.468;2023-01-13T13:26:13;8.40;99.90
11083;DHT22;5595;50.186;8.468;2023-01-13T13:28:48;8.40;99.90
11083;DHT22;5595;50.186;8.468;2023-01-13T13:31:35;8.30;99.90
11083;DHT22;5595;50.186;8.468;2023-01-13T13:34:13;8.20;99.90
11083;DHT22;5595;50.186;8.468;2023-01-13T13:39:50;7.90;99.90
11083;DHT22;5595;50.186;8.468;2023-01-13T13:42:37;7.80;99.90
11083;DHT22;5595;50.186;8.468;2023-01-13T13:45:24;7.80;99.90
11083;DHT22;5595;50.186;8.468;2023-01-13T13:48:23;7.70;99.90
11083;DHT22;5595;50.186;8.468;2023-01-13T13:50:51;7.70;99.90
11083;DHT22;5595;50.186;8.468;2023-01-13T13:53:23;7.70;99.90
11083;DHT22;5595;50.186;8.468;2023-01-13T13:55:53;7.70;99.90
11083;DHT22;5595;50.186;8.468;2023-01-13T13:58:21;7.70;99.90
11083;DHT22;5595;50.186;8.468;2023-01-13T14:00:50;7.70;99.90
11083;DHT22;5595;50.186;8.468;2023-01-13T14:03:23;7.70;99.90
11083;DHT22;5595;50.186;8.468;2023-01-13T14:05:55;7.70;99.90
11083;DHT22;5595;50.186;8.468;2023-01-13T14:08:24;7.70;99.90
11083;DHT22;5595;50.186;8.468;2023-01-13T14:10:51;7.80;99.90
11083;DHT22;5595;50.186;8.468;2023-01-13T14:13:20;8.00;99.90
11083;DHT22;5595;50.186;8.468;2023-01-13T14:15:49;8.00;99.90
11083;DHT22;5595;50.186;8.468;2023-01-13T14:18:22;8.10;99.90
11083;DHT22;5595;50.186;8.468;2023-01-13T14:20:53;8.20;99.90
11083;DHT22;5595;50.186;8.468;2023-01-13T14:23:24;8.30;99.90
11083;DHT22;5595;50.186;8.468;2023-01-13T14:25:52;8.50;99.90
11083;DHT22;5595;50.186;8.468;2023-01-13T14:28:25;8.60;99.90
11083;DHT22;5595;50.186;8.468;2023-01-13T14:30:53;8.60;99.90
11083;DHT22;5595;50.186;8.468;2023-01-13T14:33:26;8.60;99.90
11083;DHT22;5595;50.186;8.468;2023-01-13T14:36:13;8.60;99.90
11083;DHT22;5595;50.186;8.468;2023-01-13T14:38:42;8.50;99.90
11083;DHT22;5595;50.186;8.468;2023-01-13T14:41:15;8.40;99.90
11083;DHT22;5595;50.186;8.468;2023-01-13T14:43:44;8.30;99.90
11083;DHT22;5595;50.186;8.468;2023-01-13T14:46:12;8.30;99.90
11083;DHT22;5595;50.186;8.468;2023-01-13T14:48:41;8.20;99.90
11083;DHT22;5595;50.186;8.468;2023-01-13T14:51:19;8.10;99.90
11083;DHT22;5595;50.186;8.468;2023-01-13T14:53:47;8.00;99.90
11083;DHT22;5595;50.186;8.468;2023-01-13T14:56:40;7.90;99.90
11083;DHT22;5595;50.186;8.468;2023-01-13T14:59:42;7.90;99.90
11083;DHT22;5595;50.186;8.468;2023-01-13T15:02:35;7.90;99.90
11083;DHT22;5595;50.186;8.468;2023-01-13T15:05:31;7.90;99.90
11083;DHT22;5595;50.186;8.468;2023-01-13T15:08:01;7.80;99.90
11083;DHT22;5595;50.186;8.468;2023-01-13T15:10:31;7.80;99.90
11083;DHT22;5595;50.186;8.468;2023-01-13T15:13:00;7.80;99.90
11083;DHT22;5595;50.186;8.468;2023-01-13T15:15:29;7.80;99.90
11083;DHT22;5595;50.186;8.468;2023-01-13T15:17:58;7.80;99.90
11083;DHT22;5595;50.186;8.468;2023-01-13T15:20:26;7.70;99.90
11083;DHT22;5595;50.186;8.468;2023-01-13T15:22:56;7.70;99.90
11083;DHT22;5595;50.186;8.468;2023-01-13T15:25:24;7.60;99.90
11083;DHT22;5595;50.186;8.468;2023-01-13T15:27:51;7.60;99.90
11083;DHT22;5595;50.186;8.468;2023-01-13T15:30:21;7.60;99.90
11083;DHT22;5595;50.186;8.468;2023-01-13T15:32:49;7.60;99.90
11083;DHT22;5595;50.186;8.468;2023-01-13T15:35:17;7.60;99.90
11083;DHT22;5595;50.186;8.468;2023-01-13T15:37:45;7.60;99.90
11083;DHT22;5595;50.186;8.468;2023-01-13T15:40:16;7.60;99.90
11083;DHT22;5595;50.186;8.468;2023-01-13T15:42:44;7.60;99.90
11083;DHT22;5595;50.186;8.468;2023-01-13T15:45:29;7.50;99.90
11083;DHT22;5595;50.186;8.468;2023-01-13T15:48:14;7.50;99.90
11083;DHT22;5595;50.186;8.468;2023-01-13T15:50:41;7.50;99.90
11083;DHT22;5595;50.186;8.468;2023-01-13T15:53:10;7.50;99.90
11083;DHT22;5595;50.186;8.468;2023-01-13T15:55:40;7.50;99.90
11083;DHT22;5595;50.186;8.468;2023-01-13T15:58:10;7.50;99.90
11083;DHT22;5595;50.186;8.468;2023-01-13T16:00:37;7.50;99.90
11083;DHT22;5595;50.186;8.468;2023-01-13T16:03:05;7.40;99.90
11083;DHT22;5595;50.186;8.468;2023-01-13T16:05:31;7.40;99.90
11083;DHT22;5595;50.186;8.468;2023-01-13T16:07:58;7.30;99.90
11083;DHT22;5595;50.186;8.468;2023-01-13T16:10:27;7.30;99.90
11083;DHT22;5595;50.186;8.468;2023-01-13T16:12:55;7.30;99.90
11083;DHT22;5595;50.186;8.468;2023-01-13T16:15:22;7.20;99.90
11083;DHT22;5595;50.186;8.468;2023-01-13T16:17:54;7.20;99.90
11083;DHT22;5595;50.186;8.468;2023-01-13T16:20:22;7.20;99.90
11083;DHT22;5595;50.186;8.468;2023-01-13T16:22:49;7.20;99.90
11083;DHT22;5595;50.186;8.468;2023-01-13T16:25:18;7.20;99.90
11083;DHT22;5595;50.186;8.468;2023-01-13T16:27:45;7.10;99.90
11083;DHT22;5595;50.186;8.468;2023-01-13T16:30:23;7.10;99.90
11083;DHT22;5595;50.186;8.468;2023-01-13T16:32:50;7.10;99.90
11083;DHT22;5595;50.186;8.468;2023-01-13T16:35:18;7.10;99.90
11083;DHT22;5595;50.186;8.468;2023-01-13T16:37:45;7.10;99.90
11083;DHT22;5595;50.186;8.468;2023-01-13T16:40:23;7.10;99.90
11083;DHT22;5595;50.186;8.468;2023-01-13T16:42:50;7.10;99.90
11083;DHT22;5595;50.186;8.468;2023-01-13T16:45:18;7.10;99.90